< < Back
Terminal Aerodrome Forecast


Current Version              Previous Versions:   1  2  3  4  5  6  7  8  9  

Terminal Aerodrome Forecast

396
FTUS42 KGSP 270525
TAFAND
TAF
KAND 270525Z 2706/2806 23008KT 6SM -SHRA OVC050
     FM270700 26007KT 5SM -SHRA BR OVC020
     FM271100 30006KT P6SM OVC020
     FM271700 34009G15KT P6SM BKN050
     FM272100 31007KT P6SM BKN050=

Latest METAR

615
SAUS70 KWBC 271100 RRF
MTRAND
METAR KAND 271056Z AUTO 30004KT 10SM OVC047 14/11 A2968 RMK AO2 RAB01E34
SLP042 P0000 T01440111


USA.gov is the U.S. government's official web portal to all federal, state and local government web resources and services.